Latest Weather Observations for Bushy Park

IDT60801

Issued at 10:31 am EDT Friday 15 November 2019 (issued every 10 minutes, with the page automatically refreshed every 10 minutes)

About weather observations | Map of weather stations | Latest weather observations for TAS | Other Formats
Station Details ID: 095003 Name: BUSHY PARK (BUSHY PARK ESTATES) Lat: -42.71 Lon: 146.90 Height: 27.0 m
Data from the previous 72 hours. | See also: Recent months at Bushy Park
Date/Time
EDT
Temp
°C
App
Temp
°C
Dew
Point
°C
Rel
Hum
%
Delta-T
°C
Wind Press
QNH
hPa
Press
MSL
hPa
Rain since
9am
mm
Dir  Spd
km/h
Gust
km/h
Spd
kts
Gust
kts
15/10:30am 14.5 9.6 1.8 42 5.6 WNW 17 30 9 16 - - 0.0
15/10:00am 13.1 7.8 1.6 45 4.9 W 19 26 10 14 - - 0.0
15/09:30am 11.3 5.7 3.2 57 3.6 WSW 22 39 12 21 - - 0.0
15/09:00am 11.6 7.8 1.8 51 4.2 W 11 22 6 12 - - 0.0
15/08:30am 10.5 5.9 3.8 63 3.0 WSW 17 30 9 16 - - 0.0
15/08:00am 11.1 4.6 2.9 57 3.6 W 26 46 14 25 - - 0.0
15/07:30am 12.4 7.8 1.5 47 4.6 W 15 28 8 15 - - 0.0
15/07:00am 11.8 6.0 -0.4 43 5.0 W 20 37 11 20 - - 0.0
15/06:30am 11.3 5.9 1.4 50 4.2 WSW 19 35 10 19 - - 0.0
15/06:00am 11.1 5.3 2.3 54 3.8 W 22 39 12 21 - - 0.0
15/05:34am 11.3 4.5 2.9 56 3.7 WNW 28 52 15 28 - - 0.0
15/05:30am 11.2 5.1 3.0 57 3.6 WNW 24 37 13 20 - - 0.0
15/05:00am 11.5 3.7 2.9 55 3.8 NW 33 56 18 30 - - 0.0
15/04:30am 11.4 3.9 3.3 57 3.6 NW 32 59 17 32 - - 0.0
15/04:00am 11.7 4.5 2.9 55 3.8 NW 30 54 16 29 - - 0.0
15/03:30am 11.4 4.7 3.6 58 3.5 NW 28 52 15 28 - - 0.0
15/03:00am 11.4 4.5 2.7 55 3.8 NW 28 56 15 30 - - 0.0
15/02:30am 11.4 4.1 2.7 55 3.8 NW 30 50 16 27 - - 0.0
15/02:00am 11.4 3.7 2.5 54 3.8 NW 32 56 17 30 - - 0.0
15/01:30am 11.4 5.7 3.0 56 3.7 NW 22 41 12 22 - - 0.0
15/01:00am 12.9 7.1 4.4 56 3.9 NNW 24 41 13 22 - - 0.0
15/12:30am 12.4 6.0 5.4 62 3.3 NNW 28 48 15 26 - - 0.0
15/12:01am 12.8 5.5 5.4 60 3.4 NNW 33 52 18 28 - - 0.0
15/12:00am 12.8 5.0 5.1 59 3.6 NNW 35 52 19 28 - - 0.0
 
Date/Time
EDT
Temp
°C
App
Temp
°C
Dew
Point
°C
Rel
Hum
%
Delta-T
°C
Wind Press
QNH
hPa
Press
MSL
hPa
Rain since
9am
mm
Dir  Spd
km/h
Gust
km/h
Spd
kts
Gust
kts
14/11:49pm 12.7 5.6 5.7 62 3.3 NNW 32 69 17 37 - - 0.0
14/11:33pm 12.6 5.5 5.6 62 3.3 N 32 50 17 27 - - 0.0
14/11:30pm 12.8 5.4 5.1 59 3.6 N 33 50 18 27 - - 0.0
14/11:00pm 12.5 4.0 5.2 61 3.4 N 39 59 21 32 - - 0.0
14/10:31pm 12.5 5.7 5.0 60 3.5 NNW 30 48 16 26 - - 0.0
14/10:30pm 12.4 5.6 4.9 60 3.4 NNW 30 44 16 24 - - 0.0
14/10:03pm 12.4 6.0 5.4 62 3.3 NNW 28 50 15 27 - - 0.0
14/10:00pm 12.5 6.1 5.2 61 3.4 NNW 28 41 15 22 - - 0.0
14/09:50pm 12.4 6.0 5.1 61 3.4 N 28 48 15 26 - - 0.0
14/09:30pm 12.5 6.5 5.5 62 3.3 NNW 26 39 14 21 - - 0.0
14/09:13pm 12.3 6.0 5.5 63 3.2 N 28 46 15 25 - - 0.0
14/09:00pm 12.1 8.0 6.0 66 2.9 N 17 30 9 16 - - 0.0
14/08:30pm 13.2 9.2 4.8 56 3.9 NW 15 26 8 14 - - 0.0
14/08:00pm 14.2 6.8 3.8 49 4.7 NW 32 57 17 31 - - 0.0
14/07:30pm 14.4 9.4 4.6 51 4.5 NNW 20 41 11 22 - - 0.0
14/07:00pm 15.2 8.9 4.0 47 5.2 NW 26 41 14 22 - - 0.0
14/06:30pm 16.4 8.9 3.5 42 5.9 NW 32 52 17 28 - - 0.0
14/06:00pm 16.9 10.5 3.4 40 6.2 NW 26 48 14 26 - - 0.0
14/05:44pm 17.1 10.7 5.4 46 5.6 NW 28 48 15 26 - - 0.0
14/05:30pm 17.2 10.4 5.0 44 5.8 NNW 30 41 16 22 - - 0.0
14/05:00pm 18.0 13.4 5.6 44 6.0 NW 19 33 10 18 - - 0.0
14/04:30pm 17.4 10.8 4.4 42 6.2 NW 28 48 15 26 - - 0.0
14/04:00pm 17.2 10.9 3.5 40 6.4 NW 26 50 14 27 - - 0.0
14/03:30pm 17.8 10.9 4.4 41 6.4 NW 30 50 16 27 - - 0.0
14/03:21pm 18.1 11.2 4.6 41 6.4 WNW 30 50 16 27 - - 0.0
14/03:00pm 16.8 11.2 5.2 46 5.6 WNW 24 39 13 21 - - 0.0
14/02:30pm 17.4 13.0 4.7 43 6.0 WNW 17 28 9 15 - - 0.0
14/02:00pm 17.3 12.7 5.7 46 5.6 NW 19 37 10 20 - - 0.0
14/01:30pm 16.0 10.2 4.3 45 5.5 WNW 24 48 13 26 - - 0.0
14/01:00pm 16.1 11.3 5.8 50 5.0 W 20 41 11 22 - - 0.0
14/12:30pm 15.9 10.9 4.8 47 5.2 W 20 37 11 20 - - 0.0
14/12:00pm 15.9 10.4 5.8 51 4.9 W 24 44 13 24 - - 0.0
14/11:30am 15.8 11.5 6.9 55 4.4 W 19 39 10 21 - - 0.0
14/11:00am 15.8 11.0 7.2 56 4.3 W 22 41 12 22 - - 0.0
14/10:30am 16.2 13.9 7.5 56 4.3 NNW 9 17 5 9 - - 0.0
14/10:00am 15.7 12.9 6.8 55 4.4 NNW 11 19 6 10 - - 0.0
14/09:30am 15.3 11.5 7.5 59 3.9 N 17 24 9 13 - - 0.0
14/09:00am 15.1 11.2 7.0 58 4.0 NNW 17 26 9 14 - - 4.6
14/08:30am 15.5 12.1 6.1 53 4.5 WNW 13 20 7 11 - - 4.6
14/08:00am 14.6 10.8 5.9 56 4.2 NNW 15 24 8 13 - - 4.6
14/07:42am 14.3 7.3 6.0 57 4.0 NNE 32 52 17 28 - - 4.6
14/07:41am 14.2 6.7 6.4 59 3.8 N 35 52 19 28 - - 4.6
14/07:30am 14.2 11.2 7.8 65 3.2 N 13 22 7 12 - - 4.6
14/07:00am 12.9 9.8 7.4 69 2.7 NNW 13 30 7 16 - - 4.6
14/06:30am 12.4 8.9 7.3 71 2.5 N 15 26 8 14 - - 4.6
14/06:00am 11.1 8.2 8.3 83 1.4 N 13 19 7 10 - - 4.6
14/05:30am 10.7 6.7 8.1 84 1.3 N 19 22 10 12 - - 4.6
14/05:00am 9.7 7.1 7.6 87 1.0 NNW 11 13 6 7 - - 4.6
14/04:30am 9.9 7.1 7.0 82 1.4 NNW 11 15 6 8 - - 4.4
14/04:00am 10.1 7.2 6.3 77 1.8 NNW 11 13 6 7 - - 4.4
14/03:30am 10.2 7.7 6.4 77 1.8 NNW 9 13 5 7 - - 4.4
14/03:00am 10.6 7.1 5.4 70 2.4 N 13 22 7 12 - - 4.4
14/02:30am 10.4 7.5 4.4 66 2.7 NNW 9 15 5 8 - - 4.4
14/02:00am 10.8 7.0 5.6 70 2.4 NW 15 28 8 15 - - 4.4
14/01:30am 10.9 6.5 5.0 67 2.7 W 17 28 9 15 - - 4.4
14/01:00am 11.1 6.2 4.0 61 3.2 WNW 19 33 10 18 - - 4.4
14/12:30am 10.9 5.7 3.5 60 3.3 W 20 30 11 16 - - 4.4
14/12:00am 10.8 6.2 3.9 62 3.1 W 17 32 9 17 - - 4.4
 
Date/Time
EDT
Temp
°C
App
Temp
°C
Dew
Point
°C
Rel
Hum
%
Delta-T
°C
Wind Press
QNH
hPa
Press
MSL
hPa
Rain since
9am
mm
Dir  Spd
km/h
Gust
km/h
Spd
kts
Gust
kts
13/11:30pm 10.4 6.5 3.4 62 3.1 NNW 13 20 7 11 - - 4.4
13/11:00pm 9.8 5.6 4.0 67 2.6 NNW 15 20 8 11 - - 4.4
13/10:30pm 9.7 5.2 4.3 69 2.4 NW 17 26 9 14 - - 4.4
13/10:00pm 9.8 4.4 2.6 61 3.1 NW 20 32 11 17 - - 4.4
13/09:30pm 9.9 4.5 2.7 61 3.1 NW 20 37 11 20 - - 4.4
13/09:00pm 9.4 5.2 4.0 69 2.4 WNW 15 32 8 17 - - 4.4
13/08:30pm 9.2 4.8 5.0 75 1.9 WNW 17 35 9 19 - - 4.4
13/08:00pm 9.4 5.8 5.0 74 2.0 W 13 26 7 14 - - 4.2
13/07:30pm 10.3 5.5 2.7 59 3.3 W 17 35 9 19 - - 4.2
13/07:00pm 11.2 6.2 1.6 51 4.1 W 17 30 9 16 - - 4.2
13/06:30pm 11.9 6.3 1.1 47 4.5 W 20 39 11 21 - - 4.2
13/06:00pm 12.5 7.0 1.9 48 4.6 W 20 35 11 19 - - 4.2
13/05:30pm 12.8 7.4 4.6 57 3.8 W 22 37 12 20 - - 4.2
13/05:00pm 11.8 6.6 5.4 65 3.0 SSW 22 41 12 22 - - 4.2
13/04:30pm 11.0 7.1 7.3 78 1.8 SSW 17 26 9 14 - - 4.2
13/04:00pm 11.1 7.0 6.0 71 2.4 SSW 17 20 9 11 - - 3.8
13/03:45pm 11.0 4.8 6.1 72 2.3 SW 28 46 15 25 - - 3.8
13/03:30pm 10.7 5.6 6.2 74 2.1 WSW 22 35 12 19 - - 3.6
13/03:00pm 13.1 7.6 6.0 62 3.4 W 24 50 13 27 - - 3.0
13/02:30pm 10.5 4.8 6.5 76 1.9 WSW 26 41 14 22 - - 3.0
13/02:00pm 14.5 8.0 6.5 58 3.9 W 30 57 16 31 - - 2.2
13/01:54pm 14.1 7.8 7.2 63 3.4 WNW 30 56 16 30 - - 2.2
13/01:30pm 13.4 8.4 8.2 71 2.6 SW 24 35 13 19 - - 2.2
13/01:00pm 13.9 7.2 7.4 65 3.2 W 32 57 17 31 - - 2.2
13/12:42pm 12.1 6.3 8.1 76 2.0 WNW 28 50 15 27 - - 1.8
13/12:30pm 12.4 7.8 8.0 74 2.2 WSW 22 37 12 20 - - 1.4
13/12:00pm 12.3 7.7 8.1 75 2.1 W 22 37 12 20 - - 1.0
13/11:30am 12.3 7.9 7.6 73 2.3 NW 20 33 11 18 - - 0.4
13/11:00am 13.0 9.0 8.2 72 2.4 NW 19 30 10 16 - - 0.2
13/10:30am 13.5 8.6 6.7 63 3.3 NNW 22 33 12 18 - - 0.0
13/10:00am 11.1 6.7 5.0 66 2.8 N 17 26 9 14 - - 0.0
13/09:30am 10.5 5.5 4.8 68 2.6 N 20 28 11 15 - - 0.0
13/09:00am 9.6 5.5 4.2 69 2.4 N 15 19 8 10 - - 2.8
13/08:30am 9.1 4.9 3.9 70 2.3 NNW 15 20 8 11 - - 2.8
13/08:00am 9.0 4.7 3.0 66 2.6 N 15 22 8 12 - - 2.8
13/07:30am 8.8 3.6 2.2 63 2.8 NW 19 32 10 17 - - 2.8
13/07:00am 8.6 1.4 2.8 67 2.5 NW 30 57 16 31 - - 2.8
13/06:30am 8.3 2.0 1.5 62 2.8 NW 24 39 13 21 - - 2.6
13/06:00am 7.7 2.7 1.6 65 2.5 NNW 17 26 9 14 - - 2.6
13/05:30am 7.8 2.2 1.5 64 2.6 NW 20 37 11 20 - - 2.6
13/05:00am 7.9 2.5 1.0 61 2.8 NNW 19 30 10 16 - - 2.6
13/04:30am 7.0 2.1 2.2 71 2.0 NW 17 30 9 16 - - 2.6
13/04:00am 7.2 2.9 1.0 65 2.5 NNW 13 24 7 13 - - 2.6
13/03:30am 7.5 1.4 0.2 60 2.9 NNW 22 30 12 16 - - 2.6
13/03:00am 7.3 1.7 0.9 64 2.6 NW 20 30 11 16 - - 2.6
13/02:30am 7.7 1.3 1.1 63 2.7 NNW 24 35 13 19 - - 2.6
13/02:00am 6.7 2.1 1.8 71 2.0 NW 15 30 8 16 - - 2.6
13/01:30am 6.7 1.4 1.8 71 2.0 NNW 19 30 10 16 - - 2.6
13/01:00am 6.8 1.6 2.2 72 1.9 NW 19 32 10 17 - - 2.6
13/12:30am 6.7 1.5 2.6 75 1.7 NW 19 28 10 15 - - 2.6
13/12:00am 7.0 2.5 2.2 71 2.0 NW 15 26 8 14 - - 2.4
 
Date/Time
EDT
Temp
°C
App
Temp
°C
Dew
Point
°C
Rel
Hum
%
Delta-T
°C
Wind Press
QNH
hPa
Press
MSL
hPa
Rain since
9am
mm
Dir  Spd
km/h
Gust
km/h
Spd
kts
Gust
kts
12/11:30pm 6.9 2.1 2.6 74 1.8 WNW 17 30 9 16 - - 2.4
12/11:00pm 7.0 2.7 3.0 76 1.7 NW 15 26 8 14 - - 2.2
12/10:30pm 6.9 2.9 2.9 76 1.7 NW 13 24 7 13 - - 2.2
12/10:00pm 6.3 2.0 3.0 79 1.4 NW 15 19 8 10 - - 2.2
12/09:30pm 6.8 3.4 3.8 81 1.3 W 11 17 6 9 - - 2.0
12/09:00pm 7.3 3.4 3.3 76 1.7 W 13 19 7 10 - - 1.4
12/08:30pm 7.1 3.0 2.3 71 2.0 WNW 13 30 7 16 - - 1.4
12/08:00pm 6.9 2.6 3.4 78 1.5 NW 15 24 8 13 - - 1.4
12/07:30pm 7.1 3.0 4.1 81 1.3 NW 15 22 8 12 - - 1.4
12/07:00pm 7.8 2.8 3.4 74 1.9 NNW 19 28 10 15 - - 0.8
12/06:30pm 7.3 2.2 3.3 76 1.7 WNW 19 35 10 19 - - 0.8
12/06:00pm 9.9 4.7 2.2 59 3.3 WNW 19 43 10 23 - - 0.4
12/05:30pm 10.2 6.2 4.7 68 2.5 NW 15 26 8 14 - - 0.4
12/05:13pm 9.6 2.8 2.9 63 2.9 NW 28 46 15 25 - - 0.4
12/05:00pm 11.8 5.9 1.5 49 4.4 NW 22 39 12 21 - - 0.4
12/04:30pm 11.6 6.8 4.4 61 3.3 NW 19 35 10 19 - - 0.4
12/04:00pm 9.5 4.8 6.1 79 1.6 WNW 20 37 11 20 - - 0.4
12/03:53pm 8.6 2.4 4.3 74 1.9 W 26 46 14 25 - - 0.2
12/03:30pm 13.6 7.9 0.4 40 5.6 NW 20 33 11 18 - - 0.0
12/03:01pm 13.2 5.4 -0.6 38 5.7 W 30 48 16 26 - - 0.0
12/03:00pm 13.3 5.2 -0.4 39 5.6 W 32 48 17 26 - - 0.0
12/02:48pm 13.8 6.5 -0.3 38 5.9 NW 28 46 15 25 - - 0.0
12/02:30pm 13.0 8.3 2.9 50 4.5 W 17 33 9 18 - - 0.0
12/02:06pm 10.4 3.7 3.6 63 3.0 WSW 28 48 15 26 - - 0.0
12/02:00pm 12.1 6.5 3.7 56 3.8 SSW 22 37 12 20 - - 0.0
12/01:30pm 12.4 7.8 1.8 48 4.5 N 15 24 8 13 - - 0.0
12/01:00pm 11.5 5.1 3.4 57 3.6 SW 26 48 14 26 - - 0.0
12/12:58pm 12.1 5.2 2.5 52 4.2 SW 28 48 15 26 - - 0.0
12/12:30pm 13.4 7.8 1.1 43 5.2 WSW 20 35 11 19 - - 0.0
12/12:00pm 13.1 8.2 2.2 47 4.7 NNW 17 30 9 16 - - 0.0
12/11:32am 12.2 5.0 0.6 45 4.8 W 28 46 15 25 - - 0.0
12/11:30am 12.7 6.9 -0.3 40 5.3 NW 20 32 11 17 - - 0.0
12/11:00am 13.0 7.0 1.1 44 5.1 WNW 22 37 12 20 - - 0.0

Other formats

Comma delimited format used in spreadsheet applications
http://www.bom.gov.au/fwo/IDT60801/IDT60801.94964.axf

JavaScript Object Notation format (JSON) in row-major order
http://www.bom.gov.au/fwo/IDT60801/IDT60801.94964.json

Data quality

Most of these data are generated automatically and are frequently updated. Quality checks on data are not normally performed. It is possible for incorrect values to appear. Refer to information at About Latest Weather Observations and please check the disclaimer before using these data.